sensor_id;sensor_type;location;lat;lon;timestamp;pressure;altitude;pressure_sealevel;temperature;humidity
49461;BME280;35355;49.198;-0.368;2023-08-01T00:02:19;99977.84;;;19.87;72.34
49461;BME280;35355;49.198;-0.368;2023-08-01T00:04:45;99988.47;;;19.85;72.38
49461;BME280;35355;49.198;-0.368;2023-08-01T00:07:10;99988.00;;;19.83;72.21
49461;BME280;35355;49.198;-0.368;2023-08-01T00:09:35;99974.34;;;19.77;72.08
49461;BME280;35355;49.198;-0.368;2023-08-01T00:12:01;99978.25;;;19.76;72.10
49461;BME280;35355;49.198;-0.368;2023-08-01T00:14:26;99978.25;;;19.76;72.15
49461;BME280;35355;49.198;-0.368;2023-08-01T00:16:52;99972.72;;;19.76;72.00
49461;BME280;35355;49.198;-0.368;2023-08-01T00:19:18;99967.88;;;19.73;71.81
49461;BME280;35355;49.198;-0.368;2023-08-01T00:21:43;99972.47;;;19.69;71.86
49461;BME280;35355;49.198;-0.368;2023-08-01T00:24:08;99965.69;;;19.67;71.80
49461;BME280;35355;49.198;-0.368;2023-08-01T00:26:34;99964.06;;;19.66;71.80
49461;BME280;35355;49.198;-0.368;2023-08-01T00:29:00;99960.34;;;19.61;71.85
49461;BME280;35355;49.198;-0.368;2023-08-01T00:31:26;99961.03;;;19.58;71.68
49461;BME280;35355;49.198;-0.368;2023-08-01T00:33:51;99963.69;;;19.55;71.76
49461;BME280;35355;49.198;-0.368;2023-08-01T00:36:16;99968.75;;;19.53;71.75
49461;BME280;35355;49.198;-0.368;2023-08-01T00:38:42;99971.06;;;19.51;71.88
49461;BME280;35355;49.198;-0.368;2023-08-01T00:41:11;99967.00;;;19.48;71.83
49461;BME280;35355;49.198;-0.368;2023-08-01T00:43:37;99983.16;;;19.46;71.78
49461;BME280;35355;49.198;-0.368;2023-08-01T00:46:04;99989.03;;;19.44;71.94
49461;BME280;35355;49.198;-0.368;2023-08-01T00:48:31;99993.72;;;19.44;71.95
49461;BME280;35355;49.198;-0.368;2023-08-01T00:50:58;99994.06;;;19.42;72.02
49461;BME280;35355;49.198;-0.368;2023-08-01T00:53:25;99995.69;;;19.43;72.06
49461;BME280;35355;49.198;-0.368;2023-08-01T00:55:51;99994.56;;;19.44;72.06
49461;BME280;35355;49.198;-0.368;2023-08-01T00:58:18;99991.78;;;19.44;72.18
49461;BME280;35355;49.198;-0.368;2023-08-01T01:00:44;99989.03;;;19.44;72.00
49461;BME280;35355;49.198;-0.368;2023-08-01T01:03:10;99992.13;;;19.43;72.06
49461;BME280;35355;49.198;-0.368;2023-08-01T01:05:37;99994.91;;;19.43;71.89
49461;BME280;35355;49.198;-0.368;2023-08-01T01:08:04;99999.16;;;19.40;71.84
49461;BME280;35355;49.198;-0.368;2023-08-01T01:10:30;100007.78;;;19.39;71.81
49461;BME280;35355;49.198;-0.368;2023-08-01T01:12:56;100007.66;;;19.35;71.57
49461;BME280;35355;49.198;-0.368;2023-08-01T01:15:22;100015.50;;;19.33;71.49
49461;BME280;35355;49.198;-0.368;2023-08-01T01:17:47;100014.53;;;19.29;71.56
49461;BME280;35355;49.198;-0.368;2023-08-01T01:20:12;100017.66;;;19.27;71.43
49461;BME280;35355;49.198;-0.368;2023-08-01T01:22:39;100010.38;;;19.23;71.31
49461;BME280;35355;49.198;-0.368;2023-08-01T01:25:07;100014.28;;;19.22;71.32
49461;BME280;35355;49.198;-0.368;2023-08-01T01:27:34;100028.44;;;19.20;71.35
49461;BME280;35355;49.198;-0.368;2023-08-01T01:30:01;100023.25;;;19.19;71.38
49461;BME280;35355;49.198;-0.368;2023-08-01T01:32:29;100011.03;;;19.20;71.31
49461;BME280;35355;49.198;-0.368;2023-08-01T01:34:54;100024.53;;;19.21;71.03
49461;BME280;35355;49.198;-0.368;2023-08-01T01:37:19;100033.63;;;19.22;71.32
49461;BME280;35355;49.198;-0.368;2023-08-01T01:39:45;100034.81;;;19.21;71.16
49461;BME280;35355;49.198;-0.368;2023-08-01T01:42:10;100034.81;;;19.21;71.11
49461;BME280;35355;49.198;-0.368;2023-08-01T01:44:38;100032.38;;;19.19;71.23
49461;BME280;35355;49.198;-0.368;2023-08-01T01:47:03;100024.72;;;19.16;71.20
49461;BME280;35355;49.198;-0.368;2023-08-01T01:49:29;100045.38;;;19.19;71.11
49461;BME280;35355;49.198;-0.368;2023-08-01T01:51:54;100033.84;;;19.17;71.12
49461;BME280;35355;49.198;-0.368;2023-08-01T01:54:20;100025.06;;;19.15;71.07
49461;BME280;35355;49.198;-0.368;2023-08-01T01:56:45;100018.63;;;19.10;71.06
49461;BME280;35355;49.198;-0.368;2023-08-01T01:59:11;100036.13;;;19.15;70.98
49461;BME280;35355;49.198;-0.368;2023-08-01T02:01:36;100037.31;;;19.14;71.02
49461;BME280;35355;49.198;-0.368;2023-08-01T02:04:01;100044.66;;;19.09;71.14
49461;BME280;35355;49.198;-0.368;2023-08-01T02:06:27;100041.41;;;19.07;70.76
49461;BME280;35355;49.198;-0.368;2023-08-01T02:08:53;100048.88;;;19.07;70.93
49461;BME280;35355;49.198;-0.368;2023-08-01T02:11:18;100048.41;;;19.05;70.91
49461;BME280;35355;49.198;-0.368;2023-08-01T02:13:43;100045.16;;;19.03;70.93
49461;BME280;35355;49.198;-0.368;2023-08-01T02:16:09;100046.34;;;19.02;70.92
49461;BME280;35355;49.198;-0.368;2023-08-01T02:18:34;100036.41;;;19.01;70.70
49461;BME280;35355;49.198;-0.368;2023-08-01T02:21:00;100036.94;;;18.94;70.67
49461;BME280;35355;49.198;-0.368;2023-08-01T02:23:25;100035.31;;;18.93;70.74
49461;BME280;35355;49.198;-0.368;2023-08-01T02:25:51;100036.47;;;18.92;70.70
49461;BME280;35355;49.198;-0.368;2023-08-01T02:28:16;100026.41;;;18.87;70.68
49461;BME280;35355;49.198;-0.368;2023-08-01T02:30:41;100043.00;;;18.87;70.70
49461;BME280;35355;49.198;-0.368;2023-08-01T02:33:07;100034.22;;;18.85;70.57
49461;BME280;35355;49.198;-0.368;2023-08-01T02:35:32;100029.81;;;18.84;70.49
49461;BME280;35355;49.198;-0.368;2023-08-01T02:37:58;100034.84;;;18.82;70.59
49461;BME280;35355;49.198;-0.368;2023-08-01T02:40:23;100037.16;;;18.80;70.52
49461;BME280;35355;49.198;-0.368;2023-08-01T02:42:49;100039.31;;;18.74;70.28
49461;BME280;35355;49.198;-0.368;2023-08-01T02:45:14;100043.34;;;18.77;70.30
49461;BME280;35355;49.198;-0.368;2023-08-01T02:47:40;100051.53;;;18.73;70.52
49461;BME280;35355;49.198;-0.368;2023-08-01T02:50:05;100038.84;;;18.72;70.28
49461;BME280;35355;49.198;-0.368;2023-08-01T02:52:31;100036.88;;;18.73;70.43
49461;BME280;35355;49.198;-0.368;2023-08-01T02:54:56;100040.78;;;18.72;70.50
49461;BME280;35355;49.198;-0.368;2023-08-01T02:57:22;100037.22;;;18.71;70.67
49461;BME280;35355;49.198;-0.368;2023-08-01T02:59:47;100043.22;;;18.73;70.51
49461;BME280;35355;49.198;-0.368;2023-08-01T03:02:13;100042.72;;;18.71;70.24
49461;BME280;35355;49.198;-0.368;2023-08-01T03:04:38;100048.75;;;18.73;70.38
49461;BME280;35355;49.198;-0.368;2023-08-01T03:07:04;100050.56;;;18.69;70.40
49461;BME280;35355;49.198;-0.368;2023-08-01T03:09:29;100043.41;;;18.68;70.32
49461;BME280;35355;49.198;-0.368;2023-08-01T03:11:54;100036.25;;;18.67;70.29
49461;BME280;35355;49.198;-0.368;2023-08-01T03:14:20;100034.16;;;18.64;70.30
49461;BME280;35355;49.198;-0.368;2023-08-01T03:16:45;100036.44;;;18.62;70.39
49461;BME280;35355;49.198;-0.368;2023-08-01T03:19:10;100039.22;;;18.62;70.35
49461;BME280;35355;49.198;-0.368;2023-08-01T03:21:36;100034.81;;;18.61;70.25
49461;BME280;35355;49.198;-0.368;2023-08-01T03:24:03;100037.13;;;18.59;70.38
49461;BME280;35355;49.198;-0.368;2023-08-01T03:26:28;100033.06;;;18.56;70.09
49461;BME280;35355;49.198;-0.368;2023-08-01T03:28:55;100030.16;;;18.53;70.39
49461;BME280;35355;49.198;-0.368;2023-08-01T03:31:22;100023.00;;;18.52;70.31
49461;BME280;35355;49.198;-0.368;2023-08-01T03:33:47;100026.09;;;18.50;70.22
49461;BME280;35355;49.198;-0.368;2023-08-01T03:36:13;100035.19;;;18.51;70.34
49461;BME280;35355;49.198;-0.368;2023-08-01T03:38:38;100029.66;;;18.51;70.22
49461;BME280;35355;49.198;-0.368;2023-08-01T03:41:04;100031.63;;;18.50;70.38
49461;BME280;35355;49.198;-0.368;2023-08-01T03:43:30;100034.72;;;18.49;70.34
49461;BME280;35355;49.198;-0.368;2023-08-01T03:45:55;100036.34;;;18.50;70.22
49461;BME280;35355;49.198;-0.368;2023-08-01T03:48:21;100034.41;;;18.50;70.32
49461;BME280;35355;49.198;-0.368;2023-08-01T03:50:46;100038.63;;;18.48;70.21
49461;BME280;35355;49.198;-0.368;2023-08-01T03:53:12;100032.31;;;18.47;70.20
49461;BME280;35355;49.198;-0.368;2023-08-01T03:55:37;100043.69;;;18.46;70.25
49461;BME280;35355;49.198;-0.368;2023-08-01T03:58:02;100049.56;;;18.44;70.21
49461;BME280;35355;49.198;-0.368;2023-08-01T04:00:28;100044.34;;;18.43;70.27
49461;BME280;35355;49.198;-0.368;2023-08-01T04:03:00;100046.78;;;18.44;70.20
49461;BME280;35355;49.198;-0.368;2023-08-01T04:05:29;100049.56;;;18.44;70.07
49461;BME280;35355;49.198;-0.368;2023-08-01T04:07:54;100047.44;;;18.41;70.30
49461;BME280;35355;49.198;-0.368;2023-08-01T04:10:23;100043.38;;;18.38;70.46
49461;BME280;35355;49.198;-0.368;2023-08-01T04:12:49;100044.19;;;18.39;70.25
49461;BME280;35355;49.198;-0.368;2023-08-01T04:15:14;100041.75;;;18.37;70.25
49461;BME280;35355;49.198;-0.368;2023-08-01T04:17:40;100037.38;;;18.36;70.10
49461;BME280;35355;49.198;-0.368;2023-08-01T04:20:06;100049.59;;;18.35;70.13
49461;BME280;35355;49.198;-0.368;2023-08-01T04:22:31;100047.16;;;18.34;69.85
49461;BME280;35355;49.198;-0.368;2023-08-01T04:24:57;100035.28;;;18.33;70.22
49461;BME280;35355;49.198;-0.368;2023-08-01T04:27:22;100023.41;;;18.33;70.11
49461;BME280;35355;49.198;-0.368;2023-08-01T04:29:48;100023.75;;;18.31;69.99
49461;BME280;35355;49.198;-0.368;2023-08-01T04:32:13;100025.38;;;18.32;70.02
49461;BME280;35355;49.198;-0.368;2023-08-01T04:34:43;100021.31;;;18.30;70.18
49461;BME280;35355;49.198;-0.368;2023-08-01T04:37:09;100026.19;;;18.33;70.04
49461;BME280;35355;49.198;-0.368;2023-08-01T04:39:35;100028.63;;;18.34;70.02
49461;BME280;35355;49.198;-0.368;2023-08-01T04:42:01;100031.84;;;18.36;69.87
49461;BME280;35355;49.198;-0.368;2023-08-01T04:44:26;100031.38;;;18.34;70.02
49461;BME280;35355;49.198;-0.368;2023-08-01T04:46:52;100030.56;;;18.34;69.78
49461;BME280;35355;49.198;-0.368;2023-08-01T04:49:17;100037.22;;;18.33;69.99
49461;BME280;35355;49.198;-0.368;2023-08-01T04:51:44;100035.28;;;18.33;69.56
49461;BME280;35355;49.198;-0.368;2023-08-01T04:54:09;100033.19;;;18.30;69.73
49461;BME280;35355;49.198;-0.368;2023-08-01T04:56:35;100035.47;;;18.28;69.80
49461;BME280;35355;49.198;-0.368;2023-08-01T04:59:00;100038.22;;;18.28;69.82
49461;BME280;35355;49.198;-0.368;2023-08-01T05:01:27;100042.63;;;18.29;69.55
49461;BME280;35355;49.198;-0.368;2023-08-01T05:03:52;100034.63;;;18.28;69.95
49461;BME280;35355;49.198;-0.368;2023-08-01T05:06:17;100031.06;;;18.27;69.88
49461;BME280;35355;49.198;-0.368;2023-08-01T05:08:43;100022.31;;;18.25;69.92
49461;BME280;35355;49.198;-0.368;2023-08-01T05:11:09;100036.28;;;18.29;70.12
49461;BME280;35355;49.198;-0.368;2023-08-01T05:13:34;100044.72;;;18.32;70.09
49461;BME280;35355;49.198;-0.368;2023-08-01T05:15:59;100041.63;;;18.34;69.99
49461;BME280;35355;49.198;-0.368;2023-08-01T05:18:25;100044.53;;;18.37;70.06
49461;BME280;35355;49.198;-0.368;2023-08-01T05:20:50;100043.72;;;18.37;70.13
49461;BME280;35355;49.198;-0.368;2023-08-01T05:23:15;100045.81;;;18.40;70.05
49461;BME280;35355;49.198;-0.368;2023-08-01T05:25:41;100048.72;;;18.44;70.14
49461;BME280;35355;49.198;-0.368;2023-08-01T05:28:06;100043.19;;;18.44;70.08
49461;BME280;35355;49.198;-0.368;2023-08-01T05:30:31;100048.38;;;18.45;70.06
49461;BME280;35355;49.198;-0.368;2023-08-01T05:32:57;100057.19;;;18.47;70.13
49461;BME280;35355;49.198;-0.368;2023-08-01T05:35:22;100051.78;;;18.51;70.15
49461;BME280;35355;49.198;-0.368;2023-08-01T05:37:48;100053.06;;;18.53;70.15
49461;BME280;35355;49.198;-0.368;2023-08-01T05:40:13;100057.59;;;18.58;70.08
49461;BME280;35355;49.198;-0.368;2023-08-01T05:42:38;100064.75;;;18.59;70.12
49461;BME280;35355;49.198;-0.368;2023-08-01T05:45:04;100070.75;;;18.61;70.27
49461;BME280;35355;49.198;-0.368;2023-08-01T05:47:30;100074.00;;;18.63;70.30
49461;BME280;35355;49.198;-0.368;2023-08-01T05:49:56;100068.63;;;18.67;70.35
49461;BME280;35355;49.198;-0.368;2023-08-01T05:52:22;100074.78;;;18.72;70.46
49461;BME280;35355;49.198;-0.368;2023-08-01T05:54:47;100076.53;;;18.77;70.58
49461;BME280;35355;49.198;-0.368;2023-08-01T05:57:13;100070.78;;;18.91;70.78
49461;BME280;35355;49.198;-0.368;2023-08-01T05:59:38;100072.78;;;19.11;70.52
49461;BME280;35355;49.198;-0.368;2023-08-01T06:02:04;100069.47;;;19.39;70.63
49461;BME280;35355;49.198;-0.368;2023-08-01T06:04:29;100066.78;;;19.52;69.94
49461;BME280;35355;49.198;-0.368;2023-08-01T06:06:55;100059.63;;;19.51;69.67
49461;BME280;35355;49.198;-0.368;2023-08-01T06:09:21;100064.47;;;19.54;69.56
49461;BME280;35355;49.198;-0.368;2023-08-01T06:11:46;100065.84;;;19.48;69.65
49461;BME280;35355;49.198;-0.368;2023-08-01T06:14:12;100068.00;;;19.42;69.63
49461;BME280;35355;49.198;-0.368;2023-08-01T06:16:37;100069.03;;;19.37;69.87
49461;BME280;35355;49.198;-0.368;2023-08-01T06:19:02;100068.88;;;19.34;69.93
49461;BME280;35355;49.198;-0.368;2023-08-01T06:21:28;100071.50;;;19.30;70.00
49461;BME280;35355;49.198;-0.368;2023-08-01T06:23:53;100068.25;;;19.28;70.22
49461;BME280;35355;49.198;-0.368;2023-08-01T06:26:19;100071.84;;;19.28;70.14
49461;BME280;35355;49.198;-0.368;2023-08-01T06:28:44;100073.78;;;19.28;70.11
49461;BME280;35355;49.198;-0.368;2023-08-01T06:31:10;100075.75;;;19.27;70.34
49461;BME280;35355;49.198;-0.368;2023-08-01T06:33:35;100077.72;;;19.27;70.31
49461;BME280;35355;49.198;-0.368;2023-08-01T06:36:00;100077.38;;;19.28;70.51
49461;BME280;35355;49.198;-0.368;2023-08-01T06:38:26;100081.44;;;19.31;70.33
49461;BME280;35355;49.198;-0.368;2023-08-01T06:40:51;100081.44;;;19.31;70.34
49461;BME280;35355;49.198;-0.368;2023-08-01T06:43:17;100086.47;;;19.29;70.23
49461;BME280;35355;49.198;-0.368;2023-08-01T06:45:42;100086.47;;;19.29;70.32
49461;BME280;35355;49.198;-0.368;2023-08-01T06:48:08;100091.22;;;19.28;70.31
49461;BME280;35355;49.198;-0.368;2023-08-01T06:50:34;100106.88;;;19.24;70.25
49461;BME280;35355;49.198;-0.368;2023-08-01T06:52:59;100107.19;;;19.23;70.29
49461;BME280;35355;49.198;-0.368;2023-08-01T06:55:26;100101.22;;;19.21;70.36
49461;BME280;35355;49.198;-0.368;2023-08-01T06:57:51;100105.22;;;19.23;70.69
49461;BME280;35355;49.198;-0.368;2023-08-01T07:00:17;100096.06;;;19.32;70.95
49461;BME280;35355;49.198;-0.368;2023-08-01T07:02:42;100091.28;;;19.41;71.10
49461;BME280;35355;49.198;-0.368;2023-08-01T07:05:08;100096.06;;;19.53;71.21
49461;BME280;35355;49.198;-0.368;2023-08-01T07:07:33;100101.53;;;19.61;70.99
49461;BME280;35355;49.198;-0.368;2023-08-01T07:09:59;100104.69;;;19.72;70.95
49461;BME280;35355;49.198;-0.368;2023-08-01T07:12:24;100119.31;;;19.82;71.19
49461;BME280;35355;49.198;-0.368;2023-08-01T07:14:50;100115.66;;;19.90;70.70
49461;BME280;35355;49.198;-0.368;2023-08-01T07:17:15;100109.56;;;19.96;70.50
49461;BME280;35355;49.198;-0.368;2023-08-01T07:19:40;100116.16;;;20.04;70.41
49461;BME280;35355;49.198;-0.368;2023-08-01T07:22:06;100111.56;;;20.08;70.51
49461;BME280;35355;49.198;-0.368;2023-08-01T07:24:31;100118.06;;;20.12;69.87
49461;BME280;35355;49.198;-0.368;2023-08-01T07:26:56;100118.50;;;20.14;69.90
49461;BME280;35355;49.198;-0.368;2023-08-01T07:29:22;100113.75;;;20.15;69.63
49461;BME280;35355;49.198;-0.368;2023-08-01T07:31:47;100108.72;;;20.17;69.80
49461;BME280;35355;49.198;-0.368;2023-08-01T07:34:13;100125.59;;;20.24;69.61
49461;BME280;35355;49.198;-0.368;2023-08-01T07:36:38;100128.97;;;20.30;69.53
49461;BME280;35355;49.198;-0.368;2023-08-01T07:39:03;100121.91;;;20.32;68.74
49461;BME280;35355;49.198;-0.368;2023-08-01T07:41:29;100129.06;;;20.33;68.64
49461;BME280;35355;49.198;-0.368;2023-08-01T07:43:55;100132.19;;;20.32;68.26
49461;BME280;35355;49.198;-0.368;2023-08-01T07:46:20;100114.06;;;20.35;68.63
49461;BME280;35355;49.198;-0.368;2023-08-01T07:48:46;100122.16;;;20.40;68.36
49461;BME280;35355;49.198;-0.368;2023-08-01T07:51:11;100118.34;;;20.44;68.24
49461;BME280;35355;49.198;-0.368;2023-08-01T07:53:37;100124.94;;;20.52;68.26
49461;BME280;35355;49.198;-0.368;2023-08-01T07:56:02;100119.97;;;20.58;68.20
49461;BME280;35355;49.198;-0.368;2023-08-01T07:58:29;100117.34;;;20.61;67.72
49461;BME280;35355;49.198;-0.368;2023-08-01T08:00:55;100117.44;;;20.65;67.46
49461;BME280;35355;49.198;-0.368;2023-08-01T08:03:20;100122.31;;;20.68;67.19
49461;BME280;35355;49.198;-0.368;2023-08-01T08:05:49;100127.19;;;20.71;67.24
49461;BME280;35355;49.198;-0.368;2023-08-01T08:08:14;100119.78;;;20.75;67.01
49461;BME280;35355;49.198;-0.368;2023-08-01T08:10:40;100125.34;;;20.75;66.70
49461;BME280;35355;49.198;-0.368;2023-08-01T08:13:05;100116.66;;;20.77;66.50
49461;BME280;35355;49.198;-0.368;2023-08-01T08:15:30;100119.78;;;20.75;65.92
49461;BME280;35355;49.198;-0.368;2023-08-01T08:18:00;100120.16;;;20.74;65.76
49461;BME280;35355;49.198;-0.368;2023-08-01T08:20:26;100118.50;;;20.73;65.72
49461;BME280;35355;49.198;-0.368;2023-08-01T08:22:51;100113.78;;;20.73;66.09
49461;BME280;35355;49.198;-0.368;2023-08-01T08:25:17;100112.31;;;20.76;66.22
49461;BME280;35355;49.198;-0.368;2023-08-01T08:27:42;100114.03;;;20.80;65.83
49461;BME280;35355;49.198;-0.368;2023-08-01T08:30:08;100113.09;;;20.89;65.72
49461;BME280;35355;49.198;-0.368;2023-08-01T08:32:35;100115.31;;;20.95;65.79
49461;BME280;35355;49.198;-0.368;2023-08-01T08:35:01;100113.56;;;21.03;65.88
49461;BME280;35355;49.198;-0.368;2023-08-01T08:37:26;100115.50;;;21.15;65.45
49461;BME280;35355;49.198;-0.368;2023-08-01T08:39:51;100112.16;;;21.22;65.08
49461;BME280;35355;49.198;-0.368;2023-08-01T08:42:20;100112.25;;;21.25;65.03
49461;BME280;35355;49.198;-0.368;2023-08-01T08:44:48;100125.09;;;21.30;64.80
49461;BME280;35355;49.198;-0.368;2023-08-01T08:47:17;100120.44;;;21.34;64.62
49461;BME280;35355;49.198;-0.368;2023-08-01T08:49:45;100131.66;;;21.37;64.28
49461;BME280;35355;49.198;-0.368;2023-08-01T08:52:11;100120.69;;;21.41;63.62
49461;BME280;35355;49.198;-0.368;2023-08-01T08:54:37;100123.91;;;21.43;63.54
49461;BME280;35355;49.198;-0.368;2023-08-01T08:57:05;100125.53;;;21.44;63.16
49461;BME280;35355;49.198;-0.368;2023-08-01T08:59:32;100128.31;;;21.44;63.17
49461;BME280;35355;49.198;-0.368;2023-08-01T09:01:58;100138.34;;;21.49;63.05
49461;BME280;35355;49.198;-0.368;2023-08-01T09:04:27;100132.59;;;21.54;63.33
49461;BME280;35355;49.198;-0.368;2023-08-01T09:06:55;100129.34;;;21.64;63.39
49461;BME280;35355;49.198;-0.368;2023-08-01T09:09:23;100130.78;;;21.74;63.18
49461;BME280;35355;49.198;-0.368;2023-08-01T09:11:52;100129.84;;;21.82;63.16
49461;BME280;35355;49.198;-0.368;2023-08-01T09:14:18;100128.44;;;21.88;62.35
49461;BME280;35355;49.198;-0.368;2023-08-01T09:16:45;100127.72;;;21.92;61.72
49461;BME280;35355;49.198;-0.368;2023-08-01T09:19:17;100127.91;;;21.99;62.29
49461;BME280;35355;49.198;-0.368;2023-08-01T09:21:42;100130.06;;;22.05;61.80
49461;BME280;35355;49.198;-0.368;2023-08-01T09:24:15;100121.03;;;22.08;61.79
49461;BME280;35355;49.198;-0.368;2023-08-01T09:26:42;100130.75;;;22.15;64.05
49461;BME280;35355;49.198;-0.368;2023-08-01T09:29:08;100124.56;;;22.21;61.31
49461;BME280;35355;49.198;-0.368;2023-08-01T09:31:43;100139.72;;;22.24;61.79
49461;BME280;35355;49.198;-0.368;2023-08-01T09:34:25;100125.53;;;22.29;62.08
49461;BME280;35355;49.198;-0.368;2023-08-01T09:36:56;100136.88;;;22.36;60.46
49461;BME280;35355;49.198;-0.368;2023-08-01T09:39:22;100129.22;;;22.46;60.28
49461;BME280;35355;49.198;-0.368;2023-08-01T09:41:58;100135.56;;;22.46;60.33
49461;BME280;35355;49.198;-0.368;2023-08-01T09:44:25;100142.41;;;22.49;59.40
49461;BME280;35355;49.198;-0.368;2023-08-01T09:46:59;100142.66;;;22.43;59.53
49461;BME280;35355;49.198;-0.368;2023-08-01T09:49:26;100137.72;;;22.37;58.57
49461;BME280;35355;49.198;-0.368;2023-08-01T09:51:51;100145.84;;;22.30;58.78
49461;BME280;35355;49.198;-0.368;2023-08-01T09:54:17;100141.22;;;22.21;58.71
49461;BME280;35355;49.198;-0.368;2023-08-01T09:56:49;100138.25;;;22.14;58.84
49461;BME280;35355;49.198;-0.368;2023-08-01T09:59:20;100129.03;;;22.10;58.93
49461;BME280;35355;49.198;-0.368;2023-08-01T10:01:48;100137.69;;;22.08;58.25
49461;BME280;35355;49.198;-0.368;2023-08-01T10:04:18;100131.34;;;22.08;58.21
49461;BME280;35355;49.198;-0.368;2023-08-01T10:06:46;100128.13;;;22.06;58.52
49461;BME280;35355;49.198;-0.368;2023-08-01T10:09:14;100134.47;;;22.06;57.78
49461;BME280;35355;49.198;-0.368;2023-08-01T10:11:41;100150.56;;;22.13;58.46
49461;BME280;35355;49.198;-0.368;2023-08-01T10:14:08;100146.59;;;22.14;58.33
49461;BME280;35355;49.198;-0.368;2023-08-01T10:16:34;100137.53;;;22.17;58.14
49461;BME280;35355;49.198;-0.368;2023-08-01T10:19:02;100138.72;;;22.16;58.08
49461;BME280;35355;49.198;-0.368;2023-08-01T10:21:28;100145.88;;;22.17;58.12
49461;BME280;35355;49.198;-0.368;2023-08-01T10:23:55;100138.59;;;22.13;57.82
49461;BME280;35355;49.198;-0.368;2023-08-01T10:26:21;100140.03;;;22.06;57.66
49461;BME280;35355;49.198;-0.368;2023-08-01T10:28:51;100155.00;;;22.02;58.25
49461;BME280;35355;49.198;-0.368;2023-08-01T10:31:18;100145.03;;;22.01;58.09
49461;BME280;35355;49.198;-0.368;2023-08-01T10:33:45;100152.22;;;22.02;58.44
49461;BME280;35355;49.198;-0.368;2023-08-01T10:36:19;100149.44;;;22.02;58.84
49461;BME280;35355;49.198;-0.368;2023-08-01T10:41:24;100143.25;;;22.08;58.86
49461;BME280;35355;49.198;-0.368;2023-08-01T10:43:49;100141.75;;;22.11;58.36
49461;BME280;35355;49.198;-0.368;2023-08-01T10:46:15;100143.38;;;22.12;58.83
49461;BME280;35355;49.198;-0.368;2023-08-01T10:48:53;100149.72;;;22.13;58.98
49461;BME280;35355;49.198;-0.368;2023-08-01T10:51:19;100133.88;;;22.13;57.98
49461;BME280;35355;49.198;-0.368;2023-08-01T10:53:45;100135.13;;;22.16;58.34
49461;BME280;35355;49.198;-0.368;2023-08-01T10:56:19;100140.31;;;22.17;58.80
49461;BME280;35355;49.198;-0.368;2023-08-01T10:58:45;100130.59;;;22.23;58.17
49461;BME280;35355;49.198;-0.368;2023-08-01T11:01:10;100143.78;;;22.27;58.32
49461;BME280;35355;49.198;-0.368;2023-08-01T11:03:37;100140.50;;;22.24;57.72
49461;BME280;35355;49.198;-0.368;2023-08-01T11:06:03;100141.59;;;22.20;57.48
49461;BME280;35355;49.198;-0.368;2023-08-01T11:11:03;100151.72;;;22.12;58.03
49461;BME280;35355;49.198;-0.368;2023-08-01T11:13:29;100160.75;;;22.09;58.94
49461;BME280;35355;49.198;-0.368;2023-08-01T11:15:55;100162.88;;;22.00;59.83
49461;BME280;35355;49.198;-0.368;2023-08-01T11:18:22;100158.28;;;21.92;60.52
49461;BME280;35355;49.198;-0.368;2023-08-01T11:20:47;100152.94;;;21.86;61.78
49461;BME280;35355;49.198;-0.368;2023-08-01T11:23:12;100156.22;;;21.88;62.32
49461;BME280;35355;49.198;-0.368;2023-08-01T11:25:42;100150.19;;;21.86;62.97
49461;BME280;35355;49.198;-0.368;2023-08-01T11:28:12;100151.34;;;21.85;63.00
49461;BME280;35355;49.198;-0.368;2023-08-01T11:30:38;100138.53;;;21.81;63.80
49461;BME280;35355;49.198;-0.368;2023-08-01T11:33:34;100151.25;;;21.82;63.55
49461;BME280;35355;49.198;-0.368;2023-08-01T11:35:59;100158.50;;;21.86;64.00
49461;BME280;35355;49.198;-0.368;2023-08-01T11:38:29;100154.84;;;21.82;63.56
49461;BME280;35355;49.198;-0.368;2023-08-01T11:40:57;100147.94;;;21.76;63.44
49461;BME280;35355;49.198;-0.368;2023-08-01T11:43:22;100151.50;;;21.77;63.84
49461;BME280;35355;49.198;-0.368;2023-08-01T11:45:52;100158.34;;;21.79;63.38
49461;BME280;35355;49.198;-0.368;2023-08-01T11:48:21;100140.03;;;21.78;63.17
49461;BME280;35355;49.198;-0.368;2023-08-01T11:50:47;100140.13;;;21.82;63.12
49461;BME280;35355;49.198;-0.368;2023-08-01T11:53:20;100144.97;;;21.85;62.94
49461;BME280;35355;49.198;-0.368;2023-08-01T11:55:47;100143.13;;;21.89;62.94
49461;BME280;35355;49.198;-0.368;2023-08-01T11:58:12;100127.72;;;21.92;62.68
49461;BME280;35355;49.198;-0.368;2023-08-01T12:00:40;100135.09;;;22.00;62.44
49461;BME280;35355;49.198;-0.368;2023-08-01T12:03:07;100132.06;;;22.05;62.34
49461;BME280;35355;49.198;-0.368;2023-08-01T12:05:37;100133.75;;;22.10;61.87
49461;BME280;35355;49.198;-0.368;2023-08-01T12:08:13;100133.88;;;22.13;62.35
49461;BME280;35355;49.198;-0.368;2023-08-01T12:10:43;100138.38;;;22.18;61.84
49461;BME280;35355;49.198;-0.368;2023-08-01T12:13:22;100131.97;;;22.17;61.46
49461;BME280;35355;49.198;-0.368;2023-08-01T12:15:49;100120.97;;;22.21;61.17
49461;BME280;35355;49.198;-0.368;2023-08-01T12:18:22;100126.53;;;22.21;60.80
49461;BME280;35355;49.198;-0.368;2023-08-01T12:20:47;100121.06;;;22.24;60.29
49461;BME280;35355;49.198;-0.368;2023-08-01T12:23:13;100130.22;;;22.25;59.48
49461;BME280;35355;49.198;-0.368;2023-08-01T12:25:38;100136.13;;;22.23;59.32
49461;BME280;35355;49.198;-0.368;2023-08-01T12:28:04;100133.38;;;22.23;59.92
49461;BME280;35355;49.198;-0.368;2023-08-01T12:30:30;100115.06;;;22.22;59.76
49461;BME280;35355;49.198;-0.368;2023-08-01T12:32:55;100118.63;;;22.23;59.61
49461;BME280;35355;49.198;-0.368;2023-08-01T12:35:21;100124.75;;;22.29;58.88
49461;BME280;35355;49.198;-0.368;2023-08-01T12:37:46;100127.53;;;22.29;59.19
49461;BME280;35355;49.198;-0.368;2023-08-01T12:40:11;100117.66;;;22.31;58.55
49461;BME280;35355;49.198;-0.368;2023-08-01T12:42:37;100129.72;;;22.35;58.65